Time,TemperatureF,DewpointF,PressureIn,WindDirection,WindDirectionDegrees,WindSpeedMPH,WindSpeedGustMPH,Humidity,HourlyPrecipIn,Conditions,Clouds,dailyrainin,SoftwareType,DateUTC
2013-03-10 00:00:00,33.1,30.2,30.27,NNE,24,0.0,0.0,89,0.00,,,0.00,Wunderground v.1.15,2013-03-10 05:00:00,
2013-03-10 00:04:00,33.0,30.1,30.28,NNE,24,0.0,0.0,89,0.00,,,0.00,Wunderground v.1.15,2013-03-10 05:04:00,
2013-03-10 00:06:00,32.9,30.0,30.28,NNE,24,0.0,0.0,89,0.00,,,0.00,Wunderground v.1.15,2013-03-10 05:06:00,
2013-03-10 00:12:00,32.7,29.8,30.28,NNE,24,0.0,0.0,89,0.00,,,0.00,Wunderground v.1.15,2013-03-10 05:12:00,
2013-03-10 00:16:00,32.7,30.1,30.28,NNE,24,0.0,0.0,90,0.00,,,0.00,Wunderground v.1.15,2013-03-10 05:16:00,
2013-03-10 00:22:00,32.6,30.0,30.28,NNE,24,0.0,0.0,90,0.00,,,0.00,Wunderground v.1.15,2013-03-10 05:22:00,
2013-03-10 00:28:00,32.5,29.9,30.28,NNE,24,0.0,0.0,90,0.00,,,0.00,Wunderground v.1.15,2013-03-10 05:28:00,
2013-03-10 00:34:00,32.4,29.8,30.28,NNE,24,0.0,0.0,90,0.00,,,0.00,Wunderground v.1.15,2013-03-10 05:34:00,
2013-03-10 00:40:00,32.3,29.7,30.28,NNE,24,0.0,0.0,90,0.00,,,0.00,Wunderground v.1.15,2013-03-10 05:40:00,
2013-03-10 00:46:00,32.2,29.6,30.28,NNE,24,0.0,0.0,90,0.00,,,0.00,Wunderground v.1.15,2013-03-10 05:46:00,
2013-03-10 00:52:00,32.0,29.7,30.29,NNE,24,0.0,0.0,91,0.00,,,0.00,Wunderground v.1.15,2013-03-10 05:52:00,
2013-03-10 00:58:00,31.9,29.6,30.28,NNE,24,0.0,0.0,91,0.00,,,0.00,Wunderground v.1.15,2013-03-10 05:58:00,
2013-03-10 01:04:00,31.7,29.4,30.29,NNE,24,0.0,0.0,91,0.00,,,0.00,Wunderground v.1.15,2013-03-10 06:04:00,
2013-03-10 01:10:00,31.6,29.3,30.29,NNE,24,0.0,0.0,91,0.00,,,0.00,Wunderground v.1.15,2013-03-10 06:10:00,
2013-03-10 01:16:00,31.5,29.2,30.28,NNE,24,0.0,0.0,91,0.00,,,0.00,Wunderground v.1.15,2013-03-10 06:16:00,
2013-03-10 01:22:00,31.4,29.3,30.28,NNE,24,0.0,0.0,92,0.00,,,0.00,Wunderground v.1.15,2013-03-10 06:22:00,
2013-03-10 01:28:00,31.2,29.1,30.28,NNE,24,0.0,0.0,92,0.00,,,0.00,Wunderground v.1.15,2013-03-10 06:28:00,
2013-03-10 01:34:00,31.1,29.0,30.28,NNE,24,0.0,0.0,92,0.00,,,0.00,Wunderground v.1.15,2013-03-10 06:34:00,
2013-03-10 01:40:00,31.0,28.9,30.28,NNE,24,0.0,0.0,92,0.00,,,0.00,Wunderground v.1.15,2013-03-10 06:40:00,
2013-03-10 01:46:00,30.8,28.8,30.28,NNE,24,0.0,0.0,92,0.00,,,0.00,Wunderground v.1.15,2013-03-10 06:46:00,
2013-03-10 01:52:00,30.7,28.7,30.28,NNE,24,0.0,0.0,92,0.00,,,0.00,Wunderground v.1.15,2013-03-10 06:52:00,
2013-03-10 01:58:00,30.6,28.6,30.28,NNE,24,0.0,0.0,92,0.00,,,0.00,Wunderground v.1.15,2013-03-10 06:58:00,
2013-03-10 03:04:00,30.5,28.7,30.28,NNE,24,0.0,0.0,93,0.00,,,0.00,Wunderground v.1.15,2013-03-10 07:04:00,
2013-03-10 03:10:00,30.4,28.6,30.27,NNE,24,0.0,0.0,93,0.00,,,0.00,Wunderground v.1.15,2013-03-10 07:10:00,
2013-03-10 03:16:00,30.3,28.5,30.27,NNE,24,0.0,0.0,93,0.00,,,0.00,Wunderground v.1.15,2013-03-10 07:16:00,
2013-03-10 03:22:00,30.2,28.4,30.27,NNE,24,0.0,0.0,93,0.00,,,0.00,Wunderground v.1.15,2013-03-10 07:22:00,
2013-03-10 03:28:00,30.1,28.3,30.27,NNE,24,0.0,0.0,93,0.00,,,0.00,Wunderground v.1.15,2013-03-10 07:28:00,
2013-03-10 03:34:00,30.1,28.3,30.27,NNE,24,0.0,0.0,93,0.00,,,0.00,Wunderground v.1.15,2013-03-10 07:34:00,
2013-03-10 03:40:00,30.0,28.2,30.27,NNE,24,0.0,0.0,93,0.00,,,0.00,Wunderground v.1.15,2013-03-10 07:40:00,
2013-03-10 03:46:00,29.9,28.1,30.26,NNE,24,0.0,0.0,93,0.00,,,0.00,Wunderground v.1.15,2013-03-10 07:46:00,
2013-03-10 03:52:00,29.9,28.1,30.26,NNE,24,0.0,0.0,93,0.00,,,0.00,Wunderground v.1.15,2013-03-10 07:52:00,
2013-03-10 03:58:00,29.8,28.0,30.26,NNE,24,0.0,0.0,93,0.00,,,0.00,Wunderground v.1.15,2013-03-10 07:58:00,
2013-03-10 04:04:00,29.7,28.2,30.26,NNE,24,0.0,0.0,94,0.00,,,0.00,Wunderground v.1.15,2013-03-10 08:04:00,
2013-03-10 04:10:00,29.7,28.2,30.26,NNE,24,0.0,0.0,94,0.00,,,0.00,Wunderground v.1.15,2013-03-10 08:10:00,
2013-03-10 04:16:00,29.6,28.1,30.26,NNE,24,0.0,0.0,94,0.00,,,0.00,Wunderground v.1.15,2013-03-10 08:16:00,
2013-03-10 04:22:00,29.6,28.1,30.26,NNE,24,0.0,0.0,94,0.00,,,0.00,Wunderground v.1.15,2013-03-10 08:22:00,
2013-03-10 04:28:00,29.6,28.1,30.26,NNE,24,0.0,0.0,94,0.00,,,0.00,Wunderground v.1.15,2013-03-10 08:28:00,
2013-03-10 04:34:00,29.5,28.0,30.26,NNE,24,0.0,0.0,94,0.00,,,0.00,Wunderground v.1.15,2013-03-10 08:34:00,
2013-03-10 04:40:00,29.4,27.9,30.26,NNE,24,0.0,0.0,94,0.00,,,0.00,Wunderground v.1.15,2013-03-10 08:40:00,
2013-03-10 04:46:00,29.4,27.9,30.26,NNE,24,0.0,0.0,94,0.00,,,0.00,Wunderground v.1.15,2013-03-10 08:46:00,
2013-03-10 04:52:00,29.4,27.9,30.26,NNE,24,0.0,0.0,94,0.00,,,0.00,Wunderground v.1.15,2013-03-10 08:52:00,
2013-03-10 04:58:00,29.3,27.8,30.26,NNE,24,0.0,0.0,94,0.00,,,0.00,Wunderground v.1.15,2013-03-10 08:58:00,
2013-03-10 05:04:00,29.3,27.8,30.26,NNE,24,0.0,0.0,94,0.00,,,0.00,Wunderground v.1.15,2013-03-10 09:04:00,
2013-03-10 05:10:00,29.2,27.7,30.26,NNE,24,0.0,0.0,94,0.00,,,0.00,Wunderground v.1.15,2013-03-10 09:10:00,
2013-03-10 05:16:00,29.2,27.7,30.26,NNE,24,0.0,0.0,94,0.00,,,0.00,Wunderground v.1.15,2013-03-10 09:16:00,
2013-03-10 05:22:00,29.1,27.6,30.26,NNE,24,0.0,0.0,94,0.00,,,0.00,Wunderground v.1.15,2013-03-10 09:22:00,
2013-03-10 05:28:00,29.1,27.8,30.26,NNE,24,0.0,0.0,95,0.00,,,0.00,Wunderground v.1.15,2013-03-10 09:28:00,
2013-03-10 05:34:00,29.1,27.8,30.26,NNE,24,0.0,0.0,95,0.00,,,0.00,Wunderground v.1.15,2013-03-10 09:34:00,
2013-03-10 05:40:00,29.1,27.8,30.26,NNE,24,0.0,0.0,95,0.00,,,0.00,Wunderground v.1.15,2013-03-10 09:40:00,
2013-03-10 05:46:00,29.0,27.7,30.26,NNE,24,0.0,0.0,95,0.00,,,0.00,Wunderground v.1.15,2013-03-10 09:46:00,
2013-03-10 05:52:00,29.1,27.8,30.26,NNE,24,0.0,0.0,95,0.00,,,0.00,Wunderground v.1.15,2013-03-10 09:52:00,
2013-03-10 05:58:00,29.0,27.7,30.26,NNE,24,0.0,0.0,95,0.00,,,0.00,Wunderground v.1.15,2013-03-10 09:58:00,
2013-03-10 06:04:00,29.0,27.7,30.26,NNE,24,0.0,0.0,95,0.00,,,0.00,Wunderground v.1.15,2013-03-10 10:04:00,
2013-03-10 06:10:00,28.9,27.6,30.26,NNE,24,0.0,0.0,95,0.00,,,0.00,Wunderground v.1.15,2013-03-10 10:10:00,
2013-03-10 06:16:00,28.9,27.6,30.27,NNE,24,0.0,0.0,95,0.00,,,0.00,Wunderground v.1.15,2013-03-10 10:16:00,
2013-03-10 06:22:00,28.9,27.6,30.27,NNE,24,0.0,0.0,95,0.00,,,0.00,Wunderground v.1.15,2013-03-10 10:22:00,
2013-03-10 06:28:00,28.8,27.5,30.27,NNE,24,0.0,0.0,95,0.00,,,0.00,Wunderground v.1.15,2013-03-10 10:28:00,
2013-03-10 06:34:00,28.8,27.5,30.27,NNE,24,0.0,0.0,95,0.00,,,0.00,Wunderground v.1.15,2013-03-10 10:34:00,
2013-03-10 06:40:00,28.8,27.5,30.27,NNE,24,0.0,0.0,95,0.00,,,0.00,Wunderground v.1.15,2013-03-10 10:40:00,
2013-03-10 06:46:00,28.7,27.4,30.27,NNE,24,0.0,0.0,95,0.00,,,0.00,Wunderground v.1.15,2013-03-10 10:46:00,
2013-03-10 06:52:00,28.7,27.4,30.28,NNE,24,0.0,0.0,95,0.00,,,0.00,Wunderground v.1.15,2013-03-10 10:52:00,
2013-03-10 06:58:00,28.6,27.4,30.28,NNE,24,0.0,0.0,95,0.00,,,0.00,Wunderground v.1.15,2013-03-10 10:58:00,
2013-03-10 07:04:00,28.5,27.3,30.29,NNE,24,0.0,0.0,95,0.00,,,0.00,Wunderground v.1.15,2013-03-10 11:04:00,
2013-03-10 07:10:00,28.5,27.3,30.29,NNE,24,0.0,0.0,95,0.00,,,0.00,Wunderground v.1.15,2013-03-10 11:10:00,
2013-03-10 07:16:00,28.6,27.6,30.29,NNE,24,0.0,0.0,96,0.00,,,0.00,Wunderground v.1.15,2013-03-10 11:16:00,
2013-03-10 07:22:00,28.7,27.7,30.29,NNE,24,0.0,0.0,96,0.00,,,0.00,Wunderground v.1.15,2013-03-10 11:22:00,
2013-03-10 07:28:00,28.7,27.7,30.29,NNE,24,0.0,0.0,96,0.00,,,0.00,Wunderground v.1.15,2013-03-10 11:28:00,
2013-03-10 07:34:00,28.7,27.7,30.29,NNE,24,0.0,0.0,96,0.00,,,0.00,Wunderground v.1.15,2013-03-10 11:34:00,
2013-03-10 07:40:00,28.7,27.7,30.29,NNE,24,0.0,0.0,96,0.00,,,0.00,Wunderground v.1.15,2013-03-10 11:40:00,
2013-03-10 07:46:00,28.7,27.7,30.29,NNE,24,0.0,0.0,96,0.00,,,0.00,Wunderground v.1.15,2013-03-10 11:46:00,
2013-03-10 07:52:00,28.7,27.7,30.29,NNE,24,0.0,0.0,96,0.00,,,0.00,Wunderground v.1.15,2013-03-10 11:52:00,
2013-03-10 07:58:00,28.8,27.8,30.29,NNE,24,0.0,0.0,96,0.00,,,0.00,Wunderground v.1.15,2013-03-10 11:58:00,
2013-03-10 08:04:00,28.8,27.8,30.29,NNE,24,0.0,0.0,96,0.00,,,0.00,Wunderground v.1.15,2013-03-10 12:04:00,
2013-03-10 08:10:00,28.9,27.9,30.29,NNE,24,0.0,0.0,96,0.00,,,0.00,Wunderground v.1.15,2013-03-10 12:10:00,
2013-03-10 08:16:00,29.1,28.1,30.29,NNE,24,0.0,0.0,96,0.00,,,0.00,Wunderground v.1.15,2013-03-10 12:16:00,
2013-03-10 08:22:00,29.3,28.3,30.29,NNE,24,0.0,0.0,96,0.00,,,0.00,Wunderground v.1.15,2013-03-10 12:22:00,
2013-03-10 08:28:00,29.6,28.6,30.29,NNE,24,0.0,0.0,96,0.00,,,0.00,Wunderground v.1.15,2013-03-10 12:28:00,
2013-03-10 08:34:00,30.0,29.3,30.29,NNE,24,0.0,0.0,97,0.00,,,0.00,Wunderground v.1.15,2013-03-10 12:34:00,
2013-03-10 08:40:00,30.3,29.6,30.29,NNE,24,0.0,0.0,97,0.00,,,0.00,Wunderground v.1.15,2013-03-10 12:40:00,
2013-03-10 08:46:00,30.6,29.9,30.29,NNE,24,0.0,0.0,97,0.00,,,0.00,Wunderground v.1.15,2013-03-10 12:46:00,
2013-03-10 08:52:00,31.0,30.2,30.30,NNE,24,0.0,0.0,97,0.00,,,0.00,Wunderground v.1.15,2013-03-10 12:52:00,
2013-03-10 08:58:00,31.5,30.7,30.29,NNE,24,0.0,0.0,97,0.00,,,0.00,Wunderground v.1.15,2013-03-10 12:58:00,
2013-03-10 09:04:00,32.3,31.5,30.29,NNE,24,0.0,0.0,97,0.00,,,0.00,Wunderground v.1.15,2013-03-10 13:04:00,
2013-03-10 09:10:00,33.3,32.8,30.29,NNE,24,0.0,0.0,98,0.00,,,0.00,Wunderground v.1.15,2013-03-10 13:10:00,
2013-03-10 09:16:00,34.2,33.7,30.29,NNE,24,0.0,0.0,98,0.00,,,0.00,Wunderground v.1.15,2013-03-10 13:16:00,
2013-03-10 09:22:00,35.1,34.6,30.29,NNE,24,0.0,0.0,98,0.00,,,0.00,Wunderground v.1.15,2013-03-10 13:22:00,
2013-03-10 09:28:00,35.9,35.4,30.29,NNE,24,0.0,0.0,98,0.00,,,0.00,Wunderground v.1.15,2013-03-10 13:28:00,
2013-03-10 09:34:00,37.0,36.2,30.29,NNE,24,0.0,0.0,97,0.00,,,0.00,Wunderground v.1.15,2013-03-10 13:34:00,
2013-03-10 09:40:00,38.4,37.6,30.29,NNE,24,0.0,0.0,97,0.00,,,0.00,Wunderground v.1.15,2013-03-10 13:40:00,
2013-03-10 09:46:00,39.5,38.2,30.29,NNE,24,0.0,0.0,95,0.00,,,0.00,Wunderground v.1.15,2013-03-10 13:46:00,
2013-03-10 09:52:00,40.9,38.5,30.30,NNE,24,0.0,0.0,91,0.00,,,0.00,Wunderground v.1.15,2013-03-10 13:52:00,
2013-03-10 09:58:00,42.8,38.9,30.30,NNE,24,0.0,0.0,86,0.00,,,0.00,Wunderground v.1.15,2013-03-10 13:58:00,
2013-03-10 10:04:00,45.0,37.6,30.30,NNE,24,0.0,1.0,75,0.00,,,0.00,Wunderground v.1.15,2013-03-10 14:04:00,
2013-03-10 10:10:00,47.0,35.4,30.30,NNE,28,0.0,1.0,64,0.00,,,0.00,Wunderground v.1.15,2013-03-10 14:10:00,
2013-03-10 10:16:00,48.8,33.8,30.30,NNE,28,1.0,1.0,56,0.00,,,0.00,Wunderground v.1.15,2013-03-10 14:16:00,
2013-03-10 10:22:00,50.3,32.4,30.31,NE,34,1.0,1.0,50,0.00,,,0.00,Wunderground v.1.15,2013-03-10 14:22:00,
2013-03-10 10:28:00,51.1,31.0,30.31,WNW,285,1.0,2.0,46,0.00,,,0.00,Wunderground v.1.15,2013-03-10 14:28:00,
2013-03-10 10:34:00,51.6,31.5,30.31,West,275,1.0,3.0,46,0.00,,,0.00,Wunderground v.1.15,2013-03-10 14:34:00,
2013-03-10 10:40:00,52.1,31.4,30.31,West,275,1.0,1.0,45,0.00,,,0.00,Wunderground v.1.15,2013-03-10 14:40:00,
2013-03-10 10:46:00,52.9,31.6,30.31,West,275,0.0,3.0,44,0.00,,,0.00,Wunderground v.1.15,2013-03-10 14:46:00,
2013-03-10 10:52:00,53.3,30.2,30.31,West,275,1.0,2.0,41,0.00,,,0.00,Wunderground v.1.15,2013-03-10 14:52:00,
2013-03-10 10:58:00,53.7,29.9,30.31,West,275,1.0,2.0,40,0.00,,,0.00,Wunderground v.1.15,2013-03-10 14:58:00,
2013-03-10 11:04:00,54.3,29.2,30.31,WSW,255,1.0,3.0,38,0.00,,,0.00,Wunderground v.1.15,2013-03-10 15:04:00,
2013-03-10 11:10:00,55.0,29.2,30.31,South,178,1.0,1.0,37,0.00,,,0.00,Wunderground v.1.15,2013-03-10 15:10:00,
2013-03-10 11:16:00,55.7,29.1,30.31,SE,132,1.0,3.0,36,0.00,,,0.00,Wunderground v.1.15,2013-03-10 15:16:00,
2013-03-10 11:22:00,56.2,30.2,30.31,SW,217,1.0,4.0,37,0.00,,,0.00,Wunderground v.1.15,2013-03-10 15:22:00,
2013-03-10 11:28:00,56.5,29.1,30.30,SSW,213,1.0,4.0,35,0.00,,,0.00,Wunderground v.1.15,2013-03-10 15:28:00,
2013-03-10 11:34:00,56.9,28.1,30.30,ENE,58,1.0,1.0,33,0.00,,,0.00,Wunderground v.1.15,2013-03-10 15:34:00,
2013-03-10 11:40:00,57.5,28.6,30.30,SE,132,1.0,1.0,33,0.00,,,0.00,Wunderground v.1.15,2013-03-10 15:40:00,
2013-03-10 11:46:00,58.5,27.9,30.29,East,82,1.0,3.0,31,0.00,,,0.00,Wunderground v.1.15,2013-03-10 15:46:00,
2013-03-10 11:52:00,58.6,28.0,30.29,ESE,114,2.0,2.0,31,0.00,,,0.00,Wunderground v.1.15,2013-03-10 15:52:00,
2013-03-10 11:58:00,59.0,27.6,30.28,East,90,1.0,2.0,30,0.00,,,0.00,Wunderground v.1.15,2013-03-10 15:58:00,
2013-03-10 12:04:00,59.5,30.3,30.28,SE,141,2.0,2.0,33,0.00,,,0.00,Wunderground v.1.15,2013-03-10 16:04:00,
2013-03-10 12:10:00,59.5,27.2,30.28,SW,223,2.0,4.0,29,0.00,,,0.00,Wunderground v.1.15,2013-03-10 16:10:00,
2013-03-10 12:16:00,59.8,28.3,30.28,SSW,201,2.0,4.0,30,0.00,,,0.00,Wunderground v.1.15,2013-03-10 16:16:00,
2013-03-10 12:22:00,59.7,25.6,30.27,East,96,2.0,3.0,27,0.00,,,0.00,Wunderground v.1.15,2013-03-10 16:22:00,
2013-03-10 12:28:00,60.3,28.7,30.27,ENE,70,2.0,5.0,30,0.00,,,0.00,Wunderground v.1.15,2013-03-10 16:28:00,
2013-03-10 12:34:00,60.8,27.5,30.27,SE,127,2.0,2.0,28,0.00,,,0.00,Wunderground v.1.15,2013-03-10 16:34:00,
2013-03-10 12:40:00,61.3,27.9,30.27,WSW,254,1.0,3.0,28,0.00,,,0.00,Wunderground v.1.15,2013-03-10 16:40:00,
2013-03-10 12:46:00,61.6,25.4,30.27,SW,235,2.0,4.0,25,0.00,,,0.00,Wunderground v.1.15,2013-03-10 16:46:00,
2013-03-10 12:52:00,61.2,25.1,30.27,SW,234,2.0,3.0,25,0.00,,,0.00,Wunderground v.1.15,2013-03-10 16:52:00,
2013-03-10 12:58:00,61.0,25.8,30.26,SSW,192,2.0,3.0,26,0.00,,,0.00,Wunderground v.1.15,2013-03-10 16:58:00,
2013-03-10 13:04:00,61.6,27.3,30.26,East,98,1.0,2.0,27,0.00,,,0.00,Wunderground v.1.15,2013-03-10 17:04:00,
2013-03-10 13:10:00,61.9,27.5,30.26,WSW,250,2.0,2.0,27,0.00,,,0.00,Wunderground v.1.15,2013-03-10 17:10:00,
2013-03-10 13:16:00,62.3,28.7,30.26,South,188,2.0,3.0,28,0.00,,,0.00,Wunderground v.1.15,2013-03-10 17:16:00,
2013-03-10 13:22:00,62.2,29.5,30.25,NW,325,2.0,3.0,29,0.00,,,0.00,Wunderground v.1.15,2013-03-10 17:22:00,
2013-03-10 13:28:00,62.9,28.4,30.25,ENE,62,2.0,3.0,27,0.00,,,0.00,Wunderground v.1.15,2013-03-10 17:28:00,
2013-03-10 13:34:00,63.4,27.9,30.25,East,93,2.0,2.0,26,0.00,,,0.00,Wunderground v.1.15,2013-03-10 17:34:00,
2013-03-10 13:40:00,63.8,28.2,30.24,SE,130,1.0,1.0,26,0.00,,,0.00,Wunderground v.1.15,2013-03-10 17:40:00,
2013-03-10 13:46:00,64.0,28.4,30.24,ENE,69,1.0,1.0,26,0.00,,,0.00,Wunderground v.1.15,2013-03-10 17:46:00,
2013-03-10 13:52:00,64.4,29.7,30.23,SSE,165,1.0,1.0,27,0.00,,,0.00,Wunderground v.1.15,2013-03-10 17:52:00,
2013-03-10 13:58:00,64.6,27.9,30.23,South,170,2.0,3.0,25,0.00,,,0.00,Wunderground v.1.15,2013-03-10 17:58:00,
2013-03-10 14:04:00,65.0,28.3,30.23,ESE,112,2.0,2.0,25,0.00,,,0.00,Wunderground v.1.15,2013-03-10 18:04:00,
2013-03-10 14:10:00,64.6,25.9,30.23,ENE,63,1.0,1.0,23,0.00,,,0.00,Wunderground v.1.15,2013-03-10 18:10:00,
2013-03-10 14:16:00,64.4,28.7,30.23,ENE,75,1.0,2.0,26,0.00,,,0.00,Wunderground v.1.15,2013-03-10 18:16:00,
2013-03-10 14:22:00,64.8,26.1,30.23,ESE,107,1.0,1.0,23,0.00,,,0.00,Wunderground v.1.15,2013-03-10 18:22:00,
2013-03-10 14:28:00,64.8,26.1,30.23,NW,310,2.0,3.0,23,0.00,,,0.00,Wunderground v.1.15,2013-03-10 18:28:00,
2013-03-10 14:34:00,65.2,29.4,30.23,NE,53,1.0,2.0,26,0.00,,,0.00,Wunderground v.1.15,2013-03-10 18:34:00,
2013-03-10 14:40:00,65.6,26.8,30.22,East,79,1.0,2.0,23,0.00,,,0.00,Wunderground v.1.15,2013-03-10 18:40:00,
2013-03-10 14:46:00,65.9,29.1,30.22,SSW,196,2.0,2.0,25,0.00,,,0.00,Wunderground v.1.15,2013-03-10 18:46:00,
2013-03-10 14:52:00,66.4,25.2,30.21,SE,128,1.0,1.0,21,0.00,,,0.00,Wunderground v.1.15,2013-03-10 18:52:00,
2013-03-10 14:58:00,66.5,28.6,30.21,SSE,164,1.0,2.0,24,0.00,,,0.00,Wunderground v.1.15,2013-03-10 18:58:00,
2013-03-10 15:04:00,66.7,27.7,30.21,SSE,159,2.0,2.0,23,0.00,,,0.00,Wunderground v.1.15,2013-03-10 19:04:00,
2013-03-10 15:10:00,66.8,26.7,30.21,West,269,1.0,2.0,22,0.00,,,0.00,Wunderground v.1.15,2013-03-10 19:10:00,
2013-03-10 15:16:00,66.9,26.8,30.21,West,270,1.0,2.0,22,0.00,,,0.00,Wunderground v.1.15,2013-03-10 19:16:00,
2013-03-10 15:22:00,67.3,26.0,30.21,NE,40,1.0,2.0,21,0.00,,,0.00,Wunderground v.1.15,2013-03-10 19:22:00,
2013-03-10 15:28:00,67.2,25.9,30.21,SE,127,2.0,2.0,21,0.00,,,0.00,Wunderground v.1.15,2013-03-10 19:28:00,
2013-03-10 15:34:00,67.1,25.8,30.20,East,93,2.0,2.0,21,0.00,,,0.00,Wunderground v.1.15,2013-03-10 19:34:00,
2013-03-10 15:40:00,67.0,24.6,30.20,ESE,115,2.0,3.0,20,0.00,,,0.00,Wunderground v.1.15,2013-03-10 19:40:00,
2013-03-10 15:46:00,66.7,25.5,30.20,ENE,77,2.0,3.0,21,0.00,,,0.00,Wunderground v.1.15,2013-03-10 19:46:00,
2013-03-10 15:52:00,66.9,24.5,30.20,East,83,1.0,1.0,20,0.00,,,0.00,Wunderground v.1.15,2013-03-10 19:52:00,
2013-03-10 15:58:00,66.8,23.2,30.20,SSW,203,2.0,3.0,19,0.00,,,0.00,Wunderground v.1.15,2013-03-10 19:58:00,
2013-03-10 16:04:00,66.3,24.0,30.20,SW,236,2.0,3.0,20,0.00,,,0.00,Wunderground v.1.15,2013-03-10 20:04:00,
2013-03-10 16:10:00,66.3,25.2,30.20,SSW,210,2.0,5.0,21,0.00,,,0.00,Wunderground v.1.15,2013-03-10 20:10:00,
2013-03-10 16:16:00,66.8,23.2,30.20,SSE,167,1.0,5.0,19,0.00,,,0.00,Wunderground v.1.15,2013-03-10 20:16:00,
2013-03-10 16:22:00,66.7,23.1,30.19,SSW,195,2.0,2.0,19,0.00,,,0.00,Wunderground v.1.15,2013-03-10 20:22:00,
2013-03-10 16:28:00,66.5,22.9,30.19,SE,146,1.0,2.0,19,0.00,,,0.00,Wunderground v.1.15,2013-03-10 20:28:00,
2013-03-10 16:34:00,66.3,25.2,30.19,East,81,2.0,3.0,21,0.00,,,0.00,Wunderground v.1.15,2013-03-10 20:34:00,
2013-03-10 16:40:00,66.5,22.9,30.19,SSW,196,1.0,4.0,19,0.00,,,0.00,Wunderground v.1.15,2013-03-10 20:40:00,
2013-03-10 16:46:00,66.5,25.3,30.18,SSE,161,1.0,4.0,21,0.00,,,0.00,Wunderground v.1.15,2013-03-10 20:46:00,
2013-03-10 16:52:00,66.1,22.6,30.18,SSE,149,1.0,3.0,19,0.00,,,0.00,Wunderground v.1.15,2013-03-10 20:52:00,
2013-03-10 16:58:00,65.9,22.4,30.19,ENE,70,2.0,3.0,19,0.00,,,0.00,Wunderground v.1.15,2013-03-10 20:58:00,
2013-03-10 17:04:00,65.9,23.7,30.18,ESE,117,1.0,2.0,20,0.00,,,0.00,Wunderground v.1.15,2013-03-10 21:04:00,
2013-03-10 17:10:00,65.8,22.3,30.18,SSW,197,2.0,3.0,19,0.00,,,0.00,Wunderground v.1.15,2013-03-10 21:10:00,
2013-03-10 17:16:00,65.8,23.6,30.19,ESE,121,2.0,3.0,20,0.00,,,0.00,Wunderground v.1.15,2013-03-10 21:16:00,
2013-03-10 17:22:00,65.5,23.3,30.18,East,99,2.0,2.0,20,0.00,,,0.00,Wunderground v.1.15,2013-03-10 21:22:00,
2013-03-10 17:28:00,65.4,22.0,30.18,East,81,2.0,2.0,19,0.00,,,0.00,Wunderground v.1.15,2013-03-10 21:28:00,
2013-03-10 17:34:00,65.3,23.2,30.18,SSE,161,1.0,3.0,20,0.00,,,0.00,Wunderground v.1.15,2013-03-10 21:34:00,
2013-03-10 17:40:00,65.4,24.4,30.18,ESE,108,1.0,1.0,21,0.00,,,0.00,Wunderground v.1.15,2013-03-10 21:40:00,
2013-03-10 17:46:00,65.3,24.3,30.18,ESE,120,1.0,1.0,21,0.00,,,0.00,Wunderground v.1.15,2013-03-10 21:46:00,
2013-03-10 17:52:00,65.1,21.8,30.18,SE,129,1.0,4.0,19,0.00,,,0.00,Wunderground v.1.15,2013-03-10 21:52:00,
2013-03-10 17:58:00,64.8,23.9,30.18,ESE,113,2.0,4.0,21,0.00,,,0.00,Wunderground v.1.15,2013-03-10 21:58:00,
2013-03-10 18:04:00,64.5,22.5,30.18,ESE,113,1.0,1.0,20,0.00,,,0.00,Wunderground v.1.15,2013-03-10 22:04:00,
2013-03-10 18:10:00,64.1,20.9,30.18,SSW,205,1.0,2.0,19,0.00,,,0.00,Wunderground v.1.15,2013-03-10 22:10:00,
2013-03-10 18:16:00,64.1,22.2,30.19,ESE,115,1.0,2.0,20,0.00,,,0.00,Wunderground v.1.15,2013-03-10 22:16:00,
2013-03-10 18:22:00,63.9,24.3,30.18,ESE,105,1.0,2.0,22,0.00,,,0.00,Wunderground v.1.15,2013-03-10 22:22:00,
2013-03-10 18:28:00,63.7,24.1,30.18,SSE,157,1.0,2.0,22,0.00,,,0.00,Wunderground v.1.15,2013-03-10 22:28:00,
2013-03-10 18:34:00,63.5,25.0,30.18,ESE,112,1.0,1.0,23,0.00,,,0.00,Wunderground v.1.15,2013-03-10 22:34:00,
2013-03-10 18:40:00,63.3,24.8,30.19,ESE,112,1.0,1.0,23,0.00,,,0.00,Wunderground v.1.15,2013-03-10 22:40:00,
2013-03-10 18:46:00,63.0,24.6,30.19,ESE,112,0.0,1.0,23,0.00,,,0.00,Wunderground v.1.15,2013-03-10 22:46:00,
2013-03-10 18:52:00,62.6,27.2,30.19,ESE,112,0.0,0.0,26,0.00,,,0.00,Wunderground v.1.15,2013-03-10 22:52:00,
2013-03-10 18:58:00,62.1,25.8,30.19,ESE,112,0.0,0.0,25,0.00,,,0.00,Wunderground v.1.15,2013-03-10 22:58:00,
2013-03-10 19:04:00,61.6,27.3,30.19,ESE,112,0.0,0.0,27,0.00,,,0.00,Wunderground v.1.15,2013-03-10 23:04:00,
2013-03-10 19:10:00,61.0,27.6,30.19,ESE,112,0.0,0.0,28,0.00,,,0.00,Wunderground v.1.15,2013-03-10 23:10:00,
2013-03-10 19:16:00,60.4,28.8,30.19,ESE,112,0.0,0.0,30,0.00,,,0.00,Wunderground v.1.15,2013-03-10 23:16:00,
2013-03-10 19:22:00,59.8,27.4,30.19,ESE,112,0.0,0.0,29,0.00,,,0.00,Wunderground v.1.15,2013-03-10 23:22:00,
2013-03-10 19:28:00,59.1,28.5,30.20,ESE,112,0.0,0.0,31,0.00,,,0.00,Wunderground v.1.15,2013-03-10 23:28:00,
2013-03-10 19:34:00,58.3,27.8,30.20,ESE,112,0.0,0.0,31,0.00,,,0.00,Wunderground v.1.15,2013-03-10 23:34:00,
2013-03-10 19:40:00,57.7,27.2,30.20,ESE,112,0.0,0.0,31,0.00,,,0.00,Wunderground v.1.15,2013-03-10 23:40:00,
2013-03-10 19:46:00,57.1,27.5,30.21,ESE,112,0.0,0.0,32,0.00,,,0.00,Wunderground v.1.15,2013-03-10 23:46:00,
2013-03-10 19:52:00,56.4,28.3,30.21,ESE,112,0.0,0.0,34,0.00,,,0.00,Wunderground v.1.15,2013-03-10 23:52:00,
2013-03-10 19:58:00,55.4,31.5,30.21,ESE,112,0.0,0.0,40,0.00,,,0.00,Wunderground v.1.15,2013-03-10 23:58:00,
2013-03-10 20:04:00,54.7,30.2,30.21,ESE,112,0.0,0.0,39,0.00,,,0.00,Wunderground v.1.15,2013-03-11 00:04:00,
2013-03-10 20:10:00,54.1,29.7,30.21,ESE,112,0.0,0.0,39,0.00,,,0.00,Wunderground v.1.15,2013-03-11 00:10:00,
2013-03-10 20:16:00,53.5,31.5,30.21,ESE,112,0.0,0.0,43,0.00,,,0.00,Wunderground v.1.15,2013-03-11 00:16:00,
2013-03-10 20:22:00,52.6,31.8,30.20,ESE,112,0.0,0.0,45,0.00,,,0.00,Wunderground v.1.15,2013-03-11 00:22:00,
2013-03-10 20:28:00,51.9,30.6,30.19,ESE,112,0.0,0.0,44,0.00,,,0.00,Wunderground v.1.15,2013-03-11 00:28:00,
2013-03-10 20:34:00,51.4,29.6,30.19,ESE,112,0.0,0.0,43,0.00,,,0.00,Wunderground v.1.15,2013-03-11 00:34:00,
2013-03-10 20:40:00,50.8,29.6,30.19,ESE,112,0.0,0.0,44,0.00,,,0.00,Wunderground v.1.15,2013-03-11 00:40:00,
2013-03-10 20:46:00,50.4,29.3,30.19,ESE,112,0.0,0.0,44,0.00,,,0.00,Wunderground v.1.15,2013-03-11 00:46:00,
2013-03-10 20:52:00,50.1,29.6,30.19,ESE,112,0.0,0.0,45,0.00,,,0.00,Wunderground v.1.15,2013-03-11 00:52:00,
2013-03-10 20:58:00,49.9,29.4,30.20,ESE,112,0.0,0.0,45,0.00,,,0.00,Wunderground v.1.15,2013-03-11 00:58:00,
2013-03-10 21:04:00,49.5,31.1,30.20,ESE,112,0.0,0.0,49,0.00,,,0.00,Wunderground v.1.15,2013-03-11 01:04:00,
2013-03-10 21:10:00,49.2,31.3,30.20,ESE,112,0.0,0.0,50,0.00,,,0.00,Wunderground v.1.15,2013-03-11 01:10:00,
2013-03-10 21:16:00,48.8,31.9,30.20,ESE,112,0.0,0.0,52,0.00,,,0.00,Wunderground v.1.15,2013-03-11 01:16:00,
2013-03-10 21:22:00,48.4,31.1,30.21,ESE,112,0.0,0.0,51,0.00,,,0.00,Wunderground v.1.15,2013-03-11 01:22:00,
2013-03-10 21:28:00,48.0,31.7,30.21,ESE,112,0.0,0.0,53,0.00,,,0.00,Wunderground v.1.15,2013-03-11 01:28:00,
2013-03-10 21:34:00,47.5,31.7,30.21,ESE,112,0.0,0.0,54,0.00,,,0.00,Wunderground v.1.15,2013-03-11 01:34:00,
2013-03-10 21:40:00,47.1,31.7,30.21,ESE,112,0.0,0.0,55,0.00,,,0.00,Wunderground v.1.15,2013-03-11 01:40:00,
2013-03-10 21:46:00,46.8,31.5,30.21,ESE,112,0.0,0.0,55,0.00,,,0.00,Wunderground v.1.15,2013-03-11 01:46:00,
2013-03-10 21:52:00,46.4,32.0,30.21,ESE,112,0.0,0.0,57,0.00,,,0.00,Wunderground v.1.15,2013-03-11 01:52:00,
2013-03-10 21:58:00,46.0,32.5,30.21,ESE,112,0.0,0.0,59,0.00,,,0.00,Wunderground v.1.15,2013-03-11 01:58:00,
2013-03-10 22:04:00,45.6,32.9,30.21,ESE,112,0.0,0.0,61,0.00,,,0.00,Wunderground v.1.15,2013-03-11 02:04:00,
2013-03-10 22:10:00,45.2,31.7,30.21,ESE,112,0.0,0.0,59,0.00,,,0.00,Wunderground v.1.15,2013-03-11 02:10:00,
2013-03-10 22:16:00,44.9,32.3,30.21,ESE,112,0.0,0.0,61,0.00,,,0.00,Wunderground v.1.15,2013-03-11 02:16:00,
2013-03-10 22:22:00,44.5,32.3,30.21,ESE,112,0.0,0.0,62,0.00,,,0.00,Wunderground v.1.15,2013-03-11 02:22:00,
2013-03-10 22:28:00,44.3,32.5,30.20,ESE,112,0.0,0.0,63,0.00,,,0.00,Wunderground v.1.15,2013-03-11 02:28:00,
2013-03-10 22:34:00,44.0,32.6,30.21,ESE,112,0.0,0.0,64,0.00,,,0.00,Wunderground v.1.15,2013-03-11 02:34:00,
2013-03-10 22:40:00,43.8,32.4,30.21,ESE,112,0.0,0.0,64,0.00,,,0.00,Wunderground v.1.15,2013-03-11 02:40:00,
2013-03-10 22:46:00,43.6,32.2,30.21,ESE,112,0.0,0.0,64,0.00,,,0.00,Wunderground v.1.15,2013-03-11 02:46:00,
2013-03-10 22:52:00,43.6,32.2,30.21,ESE,112,0.0,0.0,64,0.00,,,0.00,Wunderground v.1.15,2013-03-11 02:52:00,
2013-03-10 22:58:00,43.5,32.5,30.22,ESE,112,0.0,0.0,65,0.00,,,0.00,Wunderground v.1.15,2013-03-11 02:58:00,
2013-03-10 23:04:00,43.5,32.1,30.22,ESE,112,0.0,0.0,64,0.00,,,0.00,Wunderground v.1.15,2013-03-11 03:04:00,
2013-03-10 23:10:00,43.6,31.4,30.22,ESE,112,0.0,0.0,62,0.00,,,0.00,Wunderground v.1.15,2013-03-11 03:10:00,
2013-03-10 23:16:00,43.7,31.9,30.22,ESE,112,0.0,0.0,63,0.00,,,0.00,Wunderground v.1.15,2013-03-11 03:16:00,
2013-03-10 23:22:00,43.9,31.7,30.22,ESE,112,0.0,0.0,62,0.00,,,0.00,Wunderground v.1.15,2013-03-11 03:22:00,
2013-03-10 23:28:00,44.2,30.8,30.22,ESE,112,0.0,0.0,59,0.00,,,0.00,Wunderground v.1.15,2013-03-11 03:28:00,
2013-03-10 23:34:00,44.5,30.2,30.22,ESE,112,0.0,0.0,57,0.00,,,0.00,Wunderground v.1.15,2013-03-11 03:34:00,
2013-03-10 23:40:00,44.7,30.8,30.22,ESE,112,0.0,0.0,58,0.00,,,0.00,Wunderground v.1.15,2013-03-11 03:40:00,
2013-03-10 23:46:00,44.7,30.8,30.22,ESE,112,0.0,0.0,58,0.00,,,0.00,Wunderground v.1.15,2013-03-11 03:46:00,
2013-03-10 23:52:00,44.8,30.9,30.22,ESE,112,0.0,0.0,58,0.00,,,0.00,Wunderground v.1.15,2013-03-11 03:52:00,
2013-03-10 23:58:00,44.9,31.0,30.22,ESE,112,0.0,0.0,58,0.00,,,0.00,Wunderground v.1.15,2013-03-11 03:58:00,